createdAt,value
2022-12-05T00:02:15.931Z,44.60
2022-12-05T00:04:45.245Z,51.90
2022-12-05T00:07:13.991Z,45.87
2022-12-05T00:09:42.305Z,34.63
2022-12-05T00:12:12.273Z,46.40
2022-12-05T00:14:40.976Z,43.67
2022-12-05T00:17:11.213Z,46.53
2022-12-05T00:19:40.672Z,40.33
2022-12-05T00:22:09.313Z,47.83
2022-12-05T00:24:37.546Z,39.73
2022-12-05T00:27:06.402Z,37.03
2022-12-05T00:29:34.757Z,39.50
2022-12-05T00:32:03.440Z,39.40
2022-12-05T00:34:33.223Z,51.93
2022-12-05T00:37:01.839Z,38.40
2022-12-05T00:39:30.192Z,39.00
2022-12-05T00:41:58.850Z,43.43
2022-12-05T00:44:27.260Z,42.40
2022-12-05T00:46:56.196Z,53.20
2022-12-05T00:49:24.493Z,51.27
2022-12-05T00:51:54.593Z,44.60
2022-12-05T00:54:23.097Z,37.67
2022-12-05T00:56:52.604Z,48.90
2022-12-05T00:59:21.478Z,55.97
2022-12-05T01:01:52.015Z,53.00
2022-12-05T01:04:22.445Z,65.57
2022-12-05T01:06:55.017Z,55.03
2022-12-05T01:09:26.205Z,53.90
2022-12-05T01:11:55.209Z,44.80
2022-12-05T01:14:26.572Z,52.63
2022-12-05T01:16:56.990Z,42.60
2022-12-05T01:19:27.459Z,46.90
2022-12-05T01:21:57.149Z,48.40
2022-12-05T01:24:28.596Z,52.57
2022-12-05T01:26:57.975Z,42.43
2022-12-05T01:29:26.927Z,46.97
2022-12-05T01:31:55.989Z,40.40
2022-12-05T01:34:24.599Z,53.10
2022-12-05T01:36:53.599Z,51.73
2022-12-05T01:39:22.339Z,46.30
2022-12-05T01:41:52.488Z,49.90
2022-12-05T01:44:58.237Z,40.80
2022-12-05T01:47:30.178Z,40.13
2022-12-05T01:49:59.779Z,37.13
2022-12-05T01:52:32.249Z,47.50
2022-12-05T01:55:14.508Z,54.17
2022-12-05T01:57:45.027Z,47.20
2022-12-05T02:00:15.952Z,45.23
2022-12-05T02:02:50.675Z,40.17
2022-12-05T02:05:22.267Z,41.90
2022-12-05T02:07:51.302Z,50.57
2022-12-05T02:10:20.596Z,49.93
2022-12-05T02:12:52.666Z,53.67
2022-12-05T02:15:33.780Z,36.30
2022-12-05T02:18:16.271Z,45.67
2022-12-05T02:20:58.671Z,38.53
2022-12-05T02:24:04.149Z,45.90
2022-12-05T02:26:53.533Z,56.97
2022-12-05T02:29:53.090Z,44.40
2022-12-05T02:32:35.923Z,40.73
2022-12-05T02:35:13.643Z,44.63
2022-12-05T02:37:45.629Z,47.03
2022-12-05T02:40:22.655Z,40.83
2022-12-05T02:42:56.014Z,47.90
2022-12-05T02:45:29.139Z,40.57
2022-12-05T02:48:00.460Z,46.00
2022-12-05T02:50:33.497Z,34.23
2022-12-05T02:53:06.003Z,36.53
2022-12-05T02:55:35.992Z,39.03
2022-12-05T02:58:08.755Z,43.70
2022-12-05T03:00:40.439Z,38.33
2022-12-05T03:03:15.727Z,37.33
2022-12-05T03:05:50.106Z,42.30
2022-12-05T03:08:23.399Z,42.60
2022-12-05T03:10:54.267Z,28.07
2022-12-05T03:13:29.537Z,33.53
2022-12-05T03:16:04.159Z,33.43
2022-12-05T03:18:39.168Z,30.43
2022-12-05T03:21:15.054Z,41.33
2022-12-05T03:23:47.954Z,35.97
2022-12-05T03:26:24.534Z,36.43
2022-12-05T03:28:59.087Z,34.53
2022-12-05T03:31:36.830Z,37.97
2022-12-05T03:34:09.857Z,33.83
2022-12-05T03:36:41.563Z,38.50
2022-12-05T03:39:17.722Z,35.80
2022-12-05T03:41:54.116Z,34.47
2022-12-05T03:44:25.360Z,39.93
2022-12-05T03:46:59.289Z,34.47
2022-12-05T03:49:34.505Z,41.90
2022-12-05T03:52:11.212Z,49.33
2022-12-05T03:54:42.387Z,40.13
2022-12-05T03:57:16.389Z,49.20
2022-12-05T03:59:51.674Z,38.53
2022-12-05T04:02:27.203Z,39.70
2022-12-05T04:05:02.130Z,44.77
2022-12-05T04:07:32.974Z,45.33
2022-12-05T04:10:04.550Z,36.63
2022-12-05T04:12:37.227Z,30.47
2022-12-05T04:15:10.634Z,34.53
2022-12-05T04:17:51.894Z,46.47
2022-12-05T04:20:46.322Z,42.47
2022-12-05T04:23:15.411Z,37.93
2022-12-05T04:25:52.744Z,42.97
2022-12-05T04:28:29.785Z,43.33
2022-12-05T04:31:06.318Z,41.00
2022-12-05T04:33:43.018Z,33.93
2022-12-05T04:36:17.408Z,26.10
2022-12-05T04:38:51.685Z,28.70
2022-12-05T04:41:25.162Z,28.60
2022-12-05T04:43:57.084Z,34.57
2022-12-05T04:46:26.025Z,32.33
2022-12-05T04:48:59.479Z,33.20
2022-12-05T04:51:34.759Z,29.50
2022-12-05T04:54:09.852Z,35.40
2022-12-05T04:56:40.451Z,29.57
2022-12-05T04:59:09.069Z,32.03
2022-12-05T05:01:41.202Z,31.93
2022-12-05T05:04:13.944Z,33.57
2022-12-05T05:06:44.522Z,41.57
2022-12-05T05:09:13.120Z,34.40
2022-12-05T05:11:41.726Z,38.43
2022-12-05T05:14:10.325Z,44.23
2022-12-05T05:16:41.466Z,41.27
2022-12-05T05:19:12.154Z,39.77
2022-12-05T05:21:42.430Z,47.70
2022-12-05T05:24:13.876Z,43.50
2022-12-05T05:26:43.649Z,45.67
2022-12-05T05:29:13.210Z,38.80
2022-12-05T05:31:42.517Z,42.60
2022-12-05T05:34:11.750Z,37.93
2022-12-05T05:36:40.519Z,46.10
2022-12-05T05:39:15.436Z,35.77
2022-12-05T05:41:44.830Z,47.10
2022-12-05T05:44:13.457Z,32.03
2022-12-05T05:46:41.985Z,42.23
2022-12-05T05:49:11.782Z,39.57
2022-12-05T05:51:40.283Z,35.43
2022-12-05T05:54:08.920Z,35.60
2022-12-05T05:56:40.633Z,39.93
2022-12-05T05:59:09.175Z,43.37
2022-12-05T06:01:37.503Z,43.27
2022-12-05T06:04:07.826Z,41.80
2022-12-05T06:06:36.632Z,36.70
2022-12-05T06:09:08.149Z,45.33
2022-12-05T06:11:36.481Z,49.40
2022-12-05T06:14:06.911Z,45.50
2022-12-05T06:16:35.300Z,42.40
2022-12-05T06:19:04.115Z,50.07
2022-12-05T06:21:32.565Z,38.97
2022-12-05T06:24:01.238Z,43.20
2022-12-05T06:26:29.533Z,43.50
2022-12-05T06:28:58.501Z,33.90
2022-12-05T06:31:31.689Z,35.50
2022-12-05T06:34:03.190Z,41.00
2022-12-05T06:36:32.307Z,50.93
2022-12-05T06:39:01.898Z,57.87
2022-12-05T06:41:30.225Z,45.33
2022-12-05T06:44:02.288Z,47.57
2022-12-05T06:46:32.574Z,46.87
2022-12-05T06:49:01.510Z,49.87
2022-12-05T06:51:29.985Z,45.40
2022-12-05T06:53:58.658Z,51.33
2022-12-05T06:56:27.272Z,53.43
2022-12-05T06:58:56.368Z,38.77
2022-12-05T07:01:45.164Z,55.53
2022-12-05T07:04:17.288Z,47.90
2022-12-05T07:06:51.157Z,44.90
2022-12-05T07:09:21.554Z,54.17
2022-12-05T07:11:50.467Z,52.53
2022-12-05T07:14:45.984Z,42.73
2022-12-05T07:17:08.600Z,43.63
2022-12-05T07:19:38.755Z,38.20
2022-12-05T07:22:13.705Z,45.50
2022-12-05T07:24:44.652Z,44.30
2022-12-05T07:27:13.498Z,43.07
2022-12-05T07:29:42.236Z,42.90
2022-12-05T07:32:10.984Z,39.60
2022-12-05T07:34:42.348Z,37.53
2022-12-05T07:37:11.014Z,46.57
2022-12-05T07:39:39.841Z,45.27
2022-12-05T07:42:08.120Z,35.57
2022-12-05T07:44:37.167Z,43.23
2022-12-05T07:47:05.727Z,44.77
2022-12-05T07:49:34.489Z,51.10
2022-12-05T07:52:04.533Z,39.63
2022-12-05T07:54:34.039Z,40.80
2022-12-05T07:57:02.577Z,36.17
2022-12-05T07:59:31.214Z,37.87
2022-12-05T08:01:59.864Z,35.93
2022-12-05T08:04:28.550Z,34.93
2022-12-05T08:06:57.191Z,36.00
2022-12-05T08:09:27.751Z,33.07
2022-12-05T08:11:56.232Z,36.80
2022-12-05T08:14:24.906Z,34.37
2022-12-05T08:16:53.662Z,33.23
2022-12-05T08:19:22.629Z,40.87
2022-12-05T08:21:52.455Z,45.83
2022-12-05T08:24:21.111Z,55.83
2022-12-05T08:26:51.261Z,56.27
2022-12-05T08:29:23.131Z,61.43
2022-12-05T08:31:53.043Z,57.00
2022-12-05T08:34:22.298Z,64.17
2022-12-05T08:36:51.177Z,45.47
2022-12-05T08:39:21.144Z,51.47
2022-12-05T08:41:51.057Z,58.63
2022-12-05T08:44:20.381Z,56.60
2022-12-05T08:46:50.551Z,70.50
2022-12-05T08:49:20.458Z,52.20
2022-12-05T08:51:48.941Z,52.53
2022-12-05T08:54:17.775Z,64.23
2022-12-05T08:56:46.535Z,49.43
2022-12-05T08:59:16.845Z,47.57
2022-12-05T09:01:45.318Z,53.20
2022-12-05T09:04:14.203Z,54.20
2022-12-05T09:06:43.497Z,45.23
2022-12-05T09:09:13.199Z,61.00
2022-12-05T09:11:46.912Z,43.13
2022-12-05T09:14:18.125Z,42.63
2022-12-05T09:16:47.995Z,49.07
2022-12-05T09:19:20.690Z,60.20
2022-12-05T09:21:49.539Z,42.83
2022-12-05T09:24:18.967Z,47.63
2022-12-05T09:26:48.032Z,39.30
2022-12-05T09:29:18.999Z,50.63
2022-12-05T09:31:51.618Z,41.47
2022-12-05T09:34:20.604Z,41.33
2022-12-05T09:37:05.715Z,43.37
2022-12-05T09:39:41.890Z,40.17
2022-12-05T09:42:31.156Z,43.27
2022-12-05T09:45:14.553Z,35.27
2022-12-05T09:47:59.775Z,32.23
2022-12-05T09:50:30.822Z,37.07
2022-12-05T09:53:14.567Z,40.40
2022-12-05T09:55:50.698Z,37.97
2022-12-05T09:58:34.669Z,45.47
2022-12-05T10:01:16.301Z,37.90
2022-12-05T10:03:49.844Z,39.53
2022-12-05T10:06:25.082Z,45.73
2022-12-05T10:09:08.871Z,42.97
2022-12-05T10:11:44.527Z,51.77
2022-12-05T10:14:29.714Z,47.03
2022-12-05T10:17:04.579Z,45.53
2022-12-05T10:19:39.519Z,34.83
2022-12-05T10:22:20.258Z,36.30
2022-12-05T10:24:53.136Z,34.50
2022-12-05T10:27:28.458Z,41.60
2022-12-05T10:30:03.185Z,33.97
2022-12-05T10:32:38.238Z,40.53
2022-12-05T10:35:17.749Z,40.77
2022-12-05T10:37:50.028Z,36.50
2022-12-05T10:40:18.841Z,35.20
2022-12-05T10:42:49.859Z,30.73
2022-12-05T10:45:21.534Z,39.63
2022-12-05T10:47:56.181Z,49.67
2022-12-05T10:50:29.293Z,51.97
2022-12-05T10:52:59.797Z,52.93
2022-12-05T10:55:32.916Z,36.10
2022-12-05T10:58:17.248Z,43.40
2022-12-05T11:00:49.204Z,39.63
2022-12-05T11:03:29.349Z,33.70
2022-12-05T11:06:00.961Z,38.77
2022-12-05T11:09:02.371Z,45.43
2022-12-05T11:11:23.459Z,30.07
2022-12-05T11:13:57.561Z,36.87
2022-12-05T11:16:29.883Z,39.43
2022-12-05T11:19:21.013Z,33.30
2022-12-05T11:21:50.145Z,43.77
2022-12-05T11:24:23.741Z,34.23
2022-12-05T11:26:52.198Z,48.13
2022-12-05T11:29:36.201Z,40.17
2022-12-05T11:32:06.798Z,37.03
2022-12-05T11:34:44.000Z,45.40
2022-12-05T11:37:15.830Z,39.03
2022-12-05T11:39:44.645Z,40.00
2022-12-05T11:42:24.979Z,40.90
2022-12-05T11:45:12.727Z,41.47
2022-12-05T11:48:04.280Z,37.57
2022-12-05T11:50:47.169Z,39.60
2022-12-05T11:53:35.500Z,50.10
2022-12-05T11:56:13.967Z,43.83
2022-12-05T11:59:02.200Z,35.57
2022-12-05T12:01:41.578Z,43.33
2022-12-05T12:04:44.111Z,38.63
2022-12-05T12:07:29.156Z,41.93
2022-12-05T12:10:10.368Z,46.43
2022-12-05T12:12:51.821Z,44.43
2022-12-05T12:15:52.759Z,40.60
2022-12-05T12:18:41.696Z,43.03
2022-12-05T12:21:18.720Z,36.87
2022-12-05T12:24:04.019Z,43.70
2022-12-05T12:26:46.018Z,36.73
2022-12-05T12:29:25.756Z,36.17
2022-12-05T12:32:04.413Z,37.07
2022-12-05T12:34:49.754Z,28.20
2022-12-05T12:37:25.788Z,33.93
2022-12-05T12:40:01.979Z,37.43
2022-12-05T12:42:40.455Z,45.53
2022-12-05T12:45:47.984Z,33.03
2022-12-05T12:48:30.490Z,33.27
2022-12-05T12:51:02.629Z,31.67
2022-12-05T12:54:07.589Z,29.33
2022-12-05T12:56:49.290Z,33.20
2022-12-05T12:59:44.341Z,34.50
2022-12-05T13:02:19.830Z,38.83
2022-12-05T13:04:54.242Z,31.93
2022-12-05T13:07:29.569Z,36.77
2022-12-05T13:10:01.329Z,27.77
2022-12-05T13:12:36.087Z,31.77
2022-12-05T13:15:11.979Z,32.07
2022-12-05T13:17:44.219Z,33.53
2022-12-05T13:20:17.066Z,33.97
2022-12-05T13:22:46.974Z,29.13
2022-12-05T13:25:16.893Z,35.10
2022-12-05T13:28:00.106Z,31.10
2022-12-05T13:30:28.961Z,40.93
2022-12-05T13:32:59.369Z,30.90
2022-12-05T13:35:50.373Z,32.23
2022-12-05T13:38:41.854Z,41.20
2022-12-05T13:41:27.907Z,31.27
2022-12-05T13:44:06.373Z,32.40
2022-12-05T13:46:39.877Z,43.17
2022-12-05T13:49:19.376Z,40.40
2022-12-05T13:51:48.126Z,38.70
2022-12-05T13:54:19.759Z,41.50
2022-12-05T13:56:52.407Z,39.57
2022-12-05T14:00:06.023Z,48.47
2022-12-05T14:02:56.297Z,38.07
2022-12-05T14:05:44.713Z,42.10
2022-12-05T14:08:46.805Z,41.23
2022-12-05T14:11:15.869Z,35.80
2022-12-05T14:13:46.300Z,36.13
2022-12-05T14:16:50.611Z,56.83
2022-12-05T14:19:54.325Z,52.60
2022-12-05T14:22:53.292Z,48.77
2022-12-05T14:25:34.117Z,46.53
2022-12-05T14:28:13.389Z,40.37
2022-12-05T14:30:52.572Z,49.67
2022-12-05T14:33:24.307Z,47.47
2022-12-05T14:35:54.459Z,42.07
2022-12-05T14:38:28.711Z,42.83
2022-12-05T14:41:06.177Z,61.83
2022-12-05T14:43:36.051Z,56.73
2022-12-05T14:46:08.136Z,56.33
2022-12-05T14:48:47.310Z,46.97
2022-12-05T14:51:56.809Z,51.03
2022-12-05T14:54:27.489Z,48.10
2022-12-05T14:57:08.154Z,44.93
2022-12-05T14:59:49.677Z,44.43
2022-12-05T15:02:23.290Z,44.10
2022-12-05T15:04:59.010Z,40.47
2022-12-05T15:07:33.696Z,47.87
2022-12-05T15:10:05.999Z,45.50
2022-12-05T15:12:40.940Z,38.13
2022-12-05T15:15:17.450Z,38.73
2022-12-05T15:17:50.202Z,44.13
2022-12-05T15:20:40.265Z,38.53
2022-12-05T15:23:40.096Z,42.30
2022-12-05T15:29:12.798Z,41.20
2022-12-05T15:31:47.289Z,35.83
2022-12-05T15:34:20.064Z,32.40
2022-12-05T15:36:53.308Z,34.80
2022-12-05T15:39:25.879Z,44.20
2022-12-05T15:41:56.227Z,31.87
2022-12-05T15:44:32.922Z,36.23
2022-12-05T15:47:06.581Z,38.23
2022-12-05T15:49:34.991Z,39.63
2022-12-05T15:52:18.159Z,47.77
2022-12-05T15:54:47.191Z,42.97
2022-12-05T15:57:20.608Z,37.17
2022-12-05T15:59:51.988Z,45.77
2022-12-05T16:02:27.408Z,39.63
2022-12-05T16:04:59.525Z,46.43
2022-12-05T16:07:31.862Z,43.70
2022-12-05T16:10:02.248Z,51.40
2022-12-05T16:12:36.896Z,46.77
2022-12-05T16:15:11.810Z,54.00
2022-12-05T16:17:43.590Z,44.47
2022-12-05T16:20:21.852Z,42.90
2022-12-05T16:22:54.501Z,42.70
2022-12-05T16:25:25.950Z,45.90
2022-12-05T16:28:05.132Z,38.67
2022-12-05T16:30:33.614Z,51.07
2022-12-05T16:33:05.493Z,39.97
2022-12-05T16:35:37.239Z,52.17
2022-12-05T16:38:16.151Z,40.03
2022-12-05T16:40:54.588Z,50.97
2022-12-05T16:43:30.522Z,49.27
2022-12-05T16:46:01.055Z,44.90
2022-12-05T16:48:31.284Z,54.20
2022-12-05T16:51:19.996Z,54.60
2022-12-05T16:53:51.362Z,52.50
2022-12-05T16:56:24.168Z,74.63
2022-12-05T16:58:53.124Z,74.90
2022-12-05T17:01:24.607Z,74.23
2022-12-05T17:03:53.958Z,73.67
2022-12-05T17:06:24.278Z,66.63
2022-12-05T17:08:55.578Z,53.10
2022-12-05T17:11:27.133Z,49.23
2022-12-05T17:13:57.559Z,49.77
2022-12-05T17:16:26.973Z,53.07
2022-12-05T17:18:55.754Z,58.17
2022-12-05T17:21:26.680Z,45.87
2022-12-05T17:23:57.115Z,50.33
2022-12-05T17:26:25.933Z,45.73
2022-12-05T17:28:54.794Z,48.67
2022-12-05T17:31:25.599Z,39.93
2022-12-05T17:33:55.370Z,60.97
2022-12-05T17:36:37.091Z,41.77
2022-12-05T17:39:08.863Z,47.53
2022-12-05T17:42:25.842Z,50.33
2022-12-05T17:44:55.869Z,62.50
2022-12-05T17:47:24.433Z,48.67
2022-12-05T17:49:53.202Z,50.13
2022-12-05T17:52:22.621Z,64.03
2022-12-05T17:55:28.585Z,61.97
2022-12-05T17:57:58.405Z,63.73
2022-12-05T18:00:27.155Z,56.07
2022-12-05T18:02:55.568Z,52.93
2022-12-05T18:05:24.700Z,68.50
2022-12-05T18:07:53.197Z,61.53
2022-12-05T18:10:23.546Z,56.93
2022-12-05T18:12:52.241Z,60.33
2022-12-05T18:15:22.412Z,63.33
2022-12-05T18:17:50.744Z,62.37
2022-12-05T18:20:19.569Z,65.27
2022-12-05T18:22:48.754Z,55.47
2022-12-05T18:25:17.842Z,76.00
2022-12-05T18:27:46.229Z,62.63
2022-12-05T18:30:15.352Z,62.47
2022-12-05T18:32:45.199Z,55.27
2022-12-05T18:35:13.917Z,63.73
2022-12-05T18:37:42.347Z,74.73
2022-12-05T18:40:14.370Z,77.77
2022-12-05T18:42:42.911Z,70.20
2022-12-05T18:45:12.354Z,83.47
2022-12-05T18:47:40.903Z,84.70
2022-12-05T18:50:11.664Z,81.90
2022-12-05T18:52:40.049Z,70.60
2022-12-05T18:55:17.151Z,95.70
2022-12-05T18:57:46.299Z,87.07
2022-12-05T19:00:16.171Z,89.97
2022-12-05T19:02:44.625Z,81.77
2022-12-05T19:05:14.819Z,84.67
2022-12-05T19:07:43.232Z,81.90
2022-12-05T19:10:12.125Z,87.37
2022-12-05T19:12:40.996Z,80.57
2022-12-05T19:15:10.387Z,84.00
2022-12-05T19:17:39.002Z,89.97
2022-12-05T19:20:08.995Z,74.87
2022-12-05T19:22:39.094Z,74.90
2022-12-05T19:25:08.883Z,69.23
2022-12-05T19:27:37.128Z,73.30
2022-12-05T19:30:10.100Z,85.33
2022-12-05T19:32:40.657Z,70.63
2022-12-05T19:35:10.671Z,71.47
2022-12-05T19:37:40.264Z,64.60
2022-12-05T19:40:10.343Z,75.40
2022-12-05T19:42:38.723Z,68.63
2022-12-05T19:45:10.413Z,61.53
2022-12-05T19:47:41.861Z,70.17
2022-12-05T19:50:10.928Z,82.70
2022-12-05T19:52:40.603Z,60.57
2022-12-05T19:55:09.967Z,58.70
2022-12-05T19:57:38.572Z,69.13
2022-12-05T20:00:10.100Z,77.27
2022-12-05T20:02:40.452Z,91.47
2022-12-05T20:05:09.838Z,62.37
2022-12-05T20:07:38.356Z,83.67
2022-12-05T20:10:09.032Z,67.37
2022-12-05T20:12:37.398Z,81.70
2022-12-05T20:15:06.831Z,70.23
2022-12-05T20:17:35.316Z,67.03
2022-12-05T20:20:04.283Z,87.67
2022-12-05T20:22:32.982Z,72.97
2022-12-05T20:25:02.020Z,67.53
2022-12-05T20:27:34.146Z,81.17
2022-12-05T20:30:02.740Z,65.90
2022-12-05T20:32:31.112Z,80.20
2022-12-05T20:34:59.834Z,78.67
2022-12-05T20:37:31.178Z,71.20
2022-12-05T20:40:02.721Z,60.90
2022-12-05T20:42:32.637Z,86.03
2022-12-05T20:45:01.534Z,70.87
2022-12-05T20:47:32.690Z,66.90
2022-12-05T20:50:01.517Z,74.17
2022-12-05T20:52:30.958Z,71.17
2022-12-05T20:54:59.489Z,62.17
2022-12-05T20:57:27.920Z,68.03
2022-12-05T20:59:58.186Z,70.43
2022-12-05T21:02:26.948Z,79.37
2022-12-05T21:04:56.176Z,59.83
2022-12-05T21:07:24.450Z,68.73
2022-12-05T21:09:53.035Z,63.73
2022-12-05T21:12:21.715Z,76.70
2022-12-05T21:14:50.853Z,70.23
2022-12-05T21:17:20.653Z,63.13
2022-12-05T21:19:49.279Z,65.93
2022-12-05T21:22:17.774Z,82.60
2022-12-05T21:24:46.445Z,93.20
2022-12-05T21:27:14.934Z,68.50
2022-12-05T21:29:44.407Z,73.93
2022-12-05T21:32:13.059Z,74.07
2022-12-05T21:34:43.247Z,80.00
2022-12-05T21:37:11.644Z,64.20
2022-12-05T21:39:40.642Z,68.40
2022-12-05T21:42:08.992Z,73.00
2022-12-05T21:44:37.492Z,57.37
2022-12-05T21:47:05.825Z,70.20
2022-12-05T21:49:34.571Z,80.53
2022-12-05T21:52:04.709Z,59.10
2022-12-05T21:54:33.241Z,69.07
2022-12-05T21:57:01.662Z,62.17
2022-12-05T21:59:32.655Z,73.80
2022-12-05T22:02:01.148Z,67.57
2022-12-05T22:04:29.811Z,63.27
2022-12-05T22:06:58.130Z,70.30
2022-12-05T22:09:28.129Z,67.47
2022-12-05T22:11:56.590Z,71.33
2022-12-05T22:14:25.174Z,75.97
2022-12-05T22:16:53.751Z,59.43
2022-12-05T22:19:22.379Z,61.77
2022-12-05T22:21:50.724Z,66.80
2022-12-05T22:24:19.468Z,65.00
2022-12-05T22:26:49.074Z,62.90
2022-12-05T22:29:17.974Z,73.13
2022-12-05T22:31:46.449Z,61.60
2022-12-05T22:34:15.572Z,66.30
2022-12-05T22:36:43.866Z,78.43
2022-12-05T22:39:14.704Z,64.70
2022-12-05T22:41:43.007Z,70.23
2022-12-05T22:44:13.048Z,88.80
2022-12-05T22:46:41.676Z,57.40
2022-12-05T22:49:11.648Z,56.43
2022-12-05T22:51:40.033Z,61.30
2022-12-05T22:54:08.809Z,69.43
2022-12-05T22:56:37.094Z,75.43
2022-12-05T22:59:08.204Z,70.23
2022-12-05T23:01:40.560Z,65.17
2022-12-05T23:04:11.729Z,62.17
2022-12-05T23:06:41.146Z,63.60
2022-12-05T23:09:11.752Z,70.17
2022-12-05T23:11:40.111Z,56.60
2022-12-05T23:14:09.097Z,59.50
2022-12-05T23:16:38.990Z,64.40
2022-12-05T23:19:08.295Z,69.27
2022-12-05T23:21:38.434Z,64.63
2022-12-05T23:24:09.286Z,57.30
2022-12-05T23:26:39.805Z,68.97
2022-12-05T23:29:08.843Z,63.10
2022-12-05T23:31:37.349Z,65.13
2022-12-05T23:34:07.631Z,56.17
2022-12-05T23:36:36.721Z,50.23
2022-12-05T23:39:06.317Z,58.23
2022-12-05T23:41:34.902Z,52.80
2022-12-05T23:44:03.587Z,80.13
2022-12-05T23:46:32.049Z,60.03
2022-12-05T23:49:00.829Z,54.30
2022-12-05T23:51:31.781Z,70.70
2022-12-05T23:54:02.604Z,60.50
2022-12-05T23:56:33.407Z,70.03
2022-12-05T23:59:02.982Z,56.23
